sensor_id;sensor_type;location;lat;lon;timestamp;temperature;humidity
21085;DHT22;34247;50.064;19.970;2023-02-28T00:01:15;19.10;20.10
21085;DHT22;34247;50.064;19.970;2023-02-28T00:02:24;19.10;20.10
21085;DHT22;34247;50.064;19.970;2023-02-28T00:03:47;19.10;20.10
21085;DHT22;34247;50.064;19.970;2023-02-28T00:04:57;19.10;20.10
21085;DHT22;34247;50.064;19.970;2023-02-28T00:06:30;19.10;20.10
21085;DHT22;34247;50.064;19.970;2023-02-28T00:07:43;19.00;20.00
21085;DHT22;34247;50.064;19.970;2023-02-28T00:09:15;19.00;20.00
21085;DHT22;34247;50.064;19.970;2023-02-28T00:10:32;19.00;19.90
21085;DHT22;34247;50.064;19.970;2023-02-28T00:11:47;19.00;19.90
21085;DHT22;34247;50.064;19.970;2023-02-28T00:12:53;19.00;19.70
21085;DHT22;34247;50.064;19.970;2023-02-28T00:14:02;19.00;19.70
21085;DHT22;34247;50.064;19.970;2023-02-28T00:15:21;19.00;19.50
21085;DHT22;34247;50.064;19.970;2023-02-28T00:16:29;19.00;19.60
21085;DHT22;34247;50.064;19.970;2023-02-28T00:17:38;18.90;19.60
21085;DHT22;34247;50.064;19.970;2023-02-28T00:18:47;18.90;19.60
21085;DHT22;34247;50.064;19.970;2023-02-28T00:20:11;18.90;19.60
21085;DHT22;34247;50.064;19.970;2023-02-28T00:21:28;18.90;19.60
21085;DHT22;34247;50.064;19.970;2023-02-28T00:22:58;18.90;19.50
21085;DHT22;34247;50.064;19.970;2023-02-28T00:24:12;18.90;19.50
21085;DHT22;34247;50.064;19.970;2023-02-28T00:25:25;18.90;19.60
21085;DHT22;34247;50.064;19.970;2023-02-28T00:26:44;18.90;19.60
21085;DHT22;34247;50.064;19.970;2023-02-28T00:27:47;18.90;19.60
21085;DHT22;34247;50.064;19.970;2023-02-28T00:28:56;18.90;19.50
21085;DHT22;34247;50.064;19.970;2023-02-28T00:30:02;18.90;19.50
21085;DHT22;34247;50.064;19.970;2023-02-28T00:31:20;18.90;19.40
21085;DHT22;34247;50.064;19.970;2023-02-28T00:32:24;18.90;19.40
21085;DHT22;34247;50.064;19.970;2023-02-28T00:33:28;18.90;19.50
21085;DHT22;34247;50.064;19.970;2023-02-28T00:34:33;18.90;19.50
21085;DHT22;34247;50.064;19.970;2023-02-28T00:35:41;18.90;19.40
21085;DHT22;34247;50.064;19.970;2023-02-28T00:36:45;18.90;19.40
21085;DHT22;34247;50.064;19.970;2023-02-28T00:37:52;18.90;19.40
21085;DHT22;34247;50.064;19.970;2023-02-28T00:38:56;18.90;19.30
21085;DHT22;34247;50.064;19.970;2023-02-28T00:40:00;18.90;19.30
21085;DHT22;34247;50.064;19.970;2023-02-28T00:41:09;18.90;19.30
21085;DHT22;34247;50.064;19.970;2023-02-28T00:42:14;18.80;19.30
21085;DHT22;34247;50.064;19.970;2023-02-28T00:43:18;18.90;19.20
21085;DHT22;34247;50.064;19.970;2023-02-28T00:44:25;18.90;19.20
21085;DHT22;34247;50.064;19.970;2023-02-28T00:45:29;18.90;19.30
21085;DHT22;34247;50.064;19.970;2023-02-28T00:46:33;18.80;19.20
21085;DHT22;34247;50.064;19.970;2023-02-28T00:47:37;18.80;19.20
21085;DHT22;34247;50.064;19.970;2023-02-28T00:48:41;18.80;19.20
21085;DHT22;34247;50.064;19.970;2023-02-28T00:49:45;18.80;19.20
21085;DHT22;34247;50.064;19.970;2023-02-28T00:50:49;18.80;19.20
21085;DHT22;34247;50.064;19.970;2023-02-28T00:51:56;18.80;19.20
21085;DHT22;34247;50.064;19.970;2023-02-28T00:53:04;18.80;19.30
21085;DHT22;34247;50.064;19.970;2023-02-28T00:54:22;18.80;19.30
21085;DHT22;34247;50.064;19.970;2023-02-28T00:55:27;18.80;19.30
21085;DHT22;34247;50.064;19.970;2023-02-28T00:56:33;18.80;19.30
21085;DHT22;34247;50.064;19.970;2023-02-28T00:57:37;18.80;19.90
21085;DHT22;34247;50.064;19.970;2023-02-28T00:58:46;18.80;19.40
21085;DHT22;34247;50.064;19.970;2023-02-28T01:00:04;18.80;19.40
21085;DHT22;34247;50.064;19.970;2023-02-28T01:01:17;18.80;19.50
21085;DHT22;34247;50.064;19.970;2023-02-28T01:02:30;18.80;19.50
21085;DHT22;34247;50.064;19.970;2023-02-28T01:03:35;18.80;19.50
21085;DHT22;34247;50.064;19.970;2023-02-28T01:04:39;18.80;19.50
21085;DHT22;34247;50.064;19.970;2023-02-28T01:05:43;18.80;19.50
21085;DHT22;34247;50.064;19.970;2023-02-28T01:06:47;18.70;19.50
21085;DHT22;34247;50.064;19.970;2023-02-28T01:07:51;18.70;19.60
21085;DHT22;34247;50.064;19.970;2023-02-28T01:08:55;18.70;19.60
21085;DHT22;34247;50.064;19.970;2023-02-28T01:09:59;18.70;19.60
21085;DHT22;34247;50.064;19.970;2023-02-28T01:11:11;18.70;19.70
21085;DHT22;34247;50.064;19.970;2023-02-28T01:12:18;18.70;19.70
21085;DHT22;34247;50.064;19.970;2023-02-28T01:13:22;18.70;19.70
21085;DHT22;34247;50.064;19.970;2023-02-28T01:14:27;18.70;19.70
21085;DHT22;34247;50.064;19.970;2023-02-28T01:15:30;18.70;19.80
21085;DHT22;34247;50.064;19.970;2023-02-28T01:16:35;18.70;19.80
21085;DHT22;34247;50.064;19.970;2023-02-28T01:17:38;18.70;19.80
21085;DHT22;34247;50.064;19.970;2023-02-28T01:18:42;18.70;19.90
21085;DHT22;34247;50.064;19.970;2023-02-28T01:19:46;18.60;20.30
21085;DHT22;34247;50.064;19.970;2023-02-28T01:20:50;18.60;19.90
21085;DHT22;34247;50.064;19.970;2023-02-28T01:22:02;18.60;19.90
21085;DHT22;34247;50.064;19.970;2023-02-28T01:23:15;18.60;19.90
21085;DHT22;34247;50.064;19.970;2023-02-28T01:24:19;18.60;19.90
21085;DHT22;34247;50.064;19.970;2023-02-28T01:25:22;18.60;20.00
21085;DHT22;34247;50.064;19.970;2023-02-28T01:26:27;18.60;20.00
21085;DHT22;34247;50.064;19.970;2023-02-28T01:27:31;18.60;20.10
21085;DHT22;34247;50.064;19.970;2023-02-28T01:28:37;18.60;20.00
21085;DHT22;34247;50.064;19.970;2023-02-28T01:29:41;18.60;20.10
21085;DHT22;34247;50.064;19.970;2023-02-28T01:30:48;18.60;20.10
21085;DHT22;34247;50.064;19.970;2023-02-28T01:31:54;18.50;20.10
21085;DHT22;34247;50.064;19.970;2023-02-28T01:32:58;18.60;20.10
21085;DHT22;34247;50.064;19.970;2023-02-28T01:34:03;18.60;20.10
21085;DHT22;34247;50.064;19.970;2023-02-28T01:35:11;18.60;20.20
21085;DHT22;34247;50.064;19.970;2023-02-28T01:36:21;18.60;20.10
21085;DHT22;34247;50.064;19.970;2023-02-28T01:37:32;18.50;20.10
21085;DHT22;34247;50.064;19.970;2023-02-28T01:38:36;18.50;20.20
21085;DHT22;34247;50.064;19.970;2023-02-28T01:39:40;18.50;20.20
21085;DHT22;34247;50.064;19.970;2023-02-28T01:40:48;18.50;20.20
21085;DHT22;34247;50.064;19.970;2023-02-28T01:41:52;18.50;20.30
21085;DHT22;34247;50.064;19.970;2023-02-28T01:42:56;18.50;20.30
21085;DHT22;34247;50.064;19.970;2023-02-28T01:46:01;18.50;20.30
21085;DHT22;34247;50.064;19.970;2023-02-28T01:47:08;18.50;20.30
21085;DHT22;34247;50.064;19.970;2023-02-28T01:48:17;18.50;20.40
21085;DHT22;34247;50.064;19.970;2023-02-28T01:49:22;18.50;20.30
21085;DHT22;34247;50.064;19.970;2023-02-28T01:50:29;18.50;20.40
21085;DHT22;34247;50.064;19.970;2023-02-28T01:51:43;18.50;20.30
21085;DHT22;34247;50.064;19.970;2023-02-28T01:52:57;18.50;20.30
21085;DHT22;34247;50.064;19.970;2023-02-28T01:54:10;18.50;20.30
21085;DHT22;34247;50.064;19.970;2023-02-28T01:55:20;18.50;20.40
21085;DHT22;34247;50.064;19.970;2023-02-28T01:56:30;18.50;20.40
21085;DHT22;34247;50.064;19.970;2023-02-28T01:57:45;18.50;20.40
21085;DHT22;34247;50.064;19.970;2023-02-28T01:58:53;18.50;20.40
21085;DHT22;34247;50.064;19.970;2023-02-28T02:00:11;18.50;20.40
21085;DHT22;34247;50.064;19.970;2023-02-28T02:01:22;18.50;20.50
21085;DHT22;34247;50.064;19.970;2023-02-28T02:02:30;18.50;20.40
21085;DHT22;34247;50.064;19.970;2023-02-28T02:03:35;18.50;20.40
21085;DHT22;34247;50.064;19.970;2023-02-28T02:04:53;18.50;20.30
21085;DHT22;34247;50.064;19.970;2023-02-28T02:06:02;18.50;20.40
21085;DHT22;34247;50.064;19.970;2023-02-28T02:07:14;18.50;20.40
21085;DHT22;34247;50.064;19.970;2023-02-28T02:08:26;18.50;20.40
21085;DHT22;34247;50.064;19.970;2023-02-28T02:09:32;18.50;20.50
21085;DHT22;34247;50.064;19.970;2023-02-28T02:10:41;18.50;20.40
21085;DHT22;34247;50.064;19.970;2023-02-28T02:11:47;18.50;20.50
21085;DHT22;34247;50.064;19.970;2023-02-28T02:14:32;18.50;20.40
21085;DHT22;34247;50.064;19.970;2023-02-28T02:17:46;18.50;20.40
21085;DHT22;34247;50.064;19.970;2023-02-28T02:25:47;18.50;20.30
21085;DHT22;34247;50.064;19.970;2023-02-28T02:34:48;18.50;20.20
21085;DHT22;34247;50.064;19.970;2023-02-28T02:37:44;18.50;20.30
21085;DHT22;34247;50.064;19.970;2023-02-28T02:39:15;18.40;20.20
21085;DHT22;34247;50.064;19.970;2023-02-28T02:40:58;18.40;20.20
21085;DHT22;34247;50.064;19.970;2023-02-28T02:42:21;18.40;20.20
21085;DHT22;34247;50.064;19.970;2023-02-28T02:43:53;18.40;20.20
21085;DHT22;34247;50.064;19.970;2023-02-28T02:45:08;18.40;20.30
21085;DHT22;34247;50.064;19.970;2023-02-28T02:46:20;18.40;20.30
21085;DHT22;34247;50.064;19.970;2023-02-28T02:47:31;18.40;20.30
21085;DHT22;34247;50.064;19.970;2023-02-28T02:48:39;18.40;20.30
21085;DHT22;34247;50.064;19.970;2023-02-28T02:49:51;18.40;20.30
21085;DHT22;34247;50.064;19.970;2023-02-28T02:51:00;18.40;20.30
21085;DHT22;34247;50.064;19.970;2023-02-28T02:52:18;18.40;20.30
21085;DHT22;34247;50.064;19.970;2023-02-28T02:53:34;18.40;20.30
21085;DHT22;34247;50.064;19.970;2023-02-28T02:54:44;18.40;20.30
21085;DHT22;34247;50.064;19.970;2023-02-28T02:55:53;18.40;20.40
21085;DHT22;34247;50.064;19.970;2023-02-28T02:57:00;18.30;20.40
21085;DHT22;34247;50.064;19.970;2023-02-28T02:58:15;18.30;20.40
21085;DHT22;34247;50.064;19.970;2023-02-28T02:59:23;18.40;20.50
21085;DHT22;34247;50.064;19.970;2023-02-28T03:00:34;18.30;20.50
21085;DHT22;34247;50.064;19.970;2023-02-28T03:01:41;18.30;20.50
21085;DHT22;34247;50.064;19.970;2023-02-28T03:02:47;18.30;20.60
21085;DHT22;34247;50.064;19.970;2023-02-28T03:03:59;18.30;20.60
21085;DHT22;34247;50.064;19.970;2023-02-28T03:05:17;18.30;20.60
21085;DHT22;34247;50.064;19.970;2023-02-28T03:06:28;18.30;20.60
21085;DHT22;34247;50.064;19.970;2023-02-28T03:07:32;18.30;20.60
21085;DHT22;34247;50.064;19.970;2023-02-28T03:08:37;18.30;20.70
21085;DHT22;34247;50.064;19.970;2023-02-28T03:09:51;18.30;20.70
21085;DHT22;34247;50.064;19.970;2023-02-28T03:10:59;18.30;20.70
21085;DHT22;34247;50.064;19.970;2023-02-28T03:12:12;18.30;20.60
21085;DHT22;34247;50.064;19.970;2023-02-28T03:16:33;18.20;20.60
21085;DHT22;34247;50.064;19.970;2023-02-28T03:18:04;18.20;20.60
21085;DHT22;34247;50.064;19.970;2023-02-28T03:21:21;18.20;20.60
21085;DHT22;34247;50.064;19.970;2023-02-28T03:22:38;18.20;20.60
21085;DHT22;34247;50.064;19.970;2023-02-28T03:26:47;18.20;20.70
21085;DHT22;34247;50.064;19.970;2023-02-28T03:28:08;18.20;20.70
21085;DHT22;34247;50.064;19.970;2023-02-28T03:32:52;18.20;20.70
21085;DHT22;34247;50.064;19.970;2023-02-28T03:34:41;18.20;20.80
21085;DHT22;34247;50.064;19.970;2023-02-28T03:35:48;18.20;20.80
21085;DHT22;34247;50.064;19.970;2023-02-28T03:36:59;18.20;20.80
21085;DHT22;34247;50.064;19.970;2023-02-28T03:38:31;18.20;20.90
21085;DHT22;34247;50.064;19.970;2023-02-28T03:40:05;18.20;20.90
21085;DHT22;34247;50.064;19.970;2023-02-28T03:41:21;18.10;20.90
21085;DHT22;34247;50.064;19.970;2023-02-28T03:42:29;18.10;20.90
21085;DHT22;34247;50.064;19.970;2023-02-28T03:43:40;18.20;20.90
21085;DHT22;34247;50.064;19.970;2023-02-28T03:46:18;18.10;21.00
21085;DHT22;34247;50.064;19.970;2023-02-28T03:47:39;18.10;21.00
21085;DHT22;34247;50.064;19.970;2023-02-28T03:49:04;18.10;21.10
21085;DHT22;34247;50.064;19.970;2023-02-28T03:50:41;18.10;21.10
21085;DHT22;34247;50.064;19.970;2023-02-28T03:51:49;18.10;21.10
21085;DHT22;34247;50.064;19.970;2023-02-28T03:53:25;18.10;21.10
21085;DHT22;34247;50.064;19.970;2023-02-28T03:54:33;18.10;21.20
21085;DHT22;34247;50.064;19.970;2023-02-28T03:55:56;18.10;21.20
21085;DHT22;34247;50.064;19.970;2023-02-28T03:57:22;18.10;21.30
21085;DHT22;34247;50.064;19.970;2023-02-28T04:00:21;18.00;21.20
21085;DHT22;34247;50.064;19.970;2023-02-28T04:01:52;18.00;21.20
21085;DHT22;34247;50.064;19.970;2023-02-28T04:02:57;18.00;21.30
21085;DHT22;34247;50.064;19.970;2023-02-28T04:04:02;18.00;21.30
21085;DHT22;34247;50.064;19.970;2023-02-28T04:05:10;18.00;21.40
21085;DHT22;34247;50.064;19.970;2023-02-28T04:06:19;18.00;21.40
21085;DHT22;34247;50.064;19.970;2023-02-28T04:07:25;18.00;21.40
21085;DHT22;34247;50.064;19.970;2023-02-28T04:08:33;18.00;21.40
21085;DHT22;34247;50.064;19.970;2023-02-28T04:09:37;18.00;21.40
21085;DHT22;34247;50.064;19.970;2023-02-28T04:10:42;17.90;21.30
21085;DHT22;34247;50.064;19.970;2023-02-28T04:11:51;17.90;21.30
21085;DHT22;34247;50.064;19.970;2023-02-28T04:12:56;17.90;21.40
21085;DHT22;34247;50.064;19.970;2023-02-28T04:14:00;17.90;21.40
21085;DHT22;34247;50.064;19.970;2023-02-28T04:15:09;17.90;21.40
21085;DHT22;34247;50.064;19.970;2023-02-28T04:16:15;17.90;21.40
21085;DHT22;34247;50.064;19.970;2023-02-28T04:17:36;17.90;21.50
21085;DHT22;34247;50.064;19.970;2023-02-28T04:18:41;17.90;21.50
21085;DHT22;34247;50.064;19.970;2023-02-28T04:19:48;17.90;21.50
21085;DHT22;34247;50.064;19.970;2023-02-28T04:20:53;17.90;21.50
21085;DHT22;34247;50.064;19.970;2023-02-28T04:21:56;17.90;21.40
21085;DHT22;34247;50.064;19.970;2023-02-28T04:23:00;17.90;21.50
21085;DHT22;34247;50.064;19.970;2023-02-28T04:24:05;17.90;21.40
21085;DHT22;34247;50.064;19.970;2023-02-28T04:25:18;17.90;21.40
21085;DHT22;34247;50.064;19.970;2023-02-28T04:26:22;17.90;21.40
21085;DHT22;34247;50.064;19.970;2023-02-28T04:27:26;17.90;21.50
21085;DHT22;34247;50.064;19.970;2023-02-28T04:28:30;17.90;21.50
21085;DHT22;34247;50.064;19.970;2023-02-28T04:29:35;17.90;21.50
21085;DHT22;34247;50.064;19.970;2023-02-28T04:30:39;17.90;21.50
21085;DHT22;34247;50.064;19.970;2023-02-28T04:31:43;17.90;21.50
21085;DHT22;34247;50.064;19.970;2023-02-28T04:32:46;17.90;21.50
21085;DHT22;34247;50.064;19.970;2023-02-28T04:33:50;17.90;22.10
21085;DHT22;34247;50.064;19.970;2023-02-28T04:34:54;17.80;21.50
21085;DHT22;34247;50.064;19.970;2023-02-28T04:36:00;17.80;21.50
21085;DHT22;34247;50.064;19.970;2023-02-28T04:37:07;17.80;21.50
21085;DHT22;34247;50.064;19.970;2023-02-28T04:38:16;17.80;21.60
21085;DHT22;34247;50.064;19.970;2023-02-28T04:39:24;17.80;21.50
21085;DHT22;34247;50.064;19.970;2023-02-28T04:40:28;17.80;21.60
21085;DHT22;34247;50.064;19.970;2023-02-28T04:41:32;17.80;21.60
21085;DHT22;34247;50.064;19.970;2023-02-28T04:42:37;17.80;21.60
21085;DHT22;34247;50.064;19.970;2023-02-28T04:43:41;17.80;21.60
21085;DHT22;34247;50.064;19.970;2023-02-28T04:44:46;17.80;21.60
21085;DHT22;34247;50.064;19.970;2023-02-28T04:45:50;17.80;21.60
21085;DHT22;34247;50.064;19.970;2023-02-28T04:46:54;17.80;21.70
21085;DHT22;34247;50.064;19.970;2023-02-28T04:47:58;17.80;21.60
21085;DHT22;34247;50.064;19.970;2023-02-28T04:49:02;17.80;21.70
21085;DHT22;34247;50.064;19.970;2023-02-28T04:50:11;17.70;21.70
21085;DHT22;34247;50.064;19.970;2023-02-28T04:51:17;17.70;21.70
21085;DHT22;34247;50.064;19.970;2023-02-28T04:52:22;17.70;21.70
21085;DHT22;34247;50.064;19.970;2023-02-28T04:53:27;17.70;21.70
21085;DHT22;34247;50.064;19.970;2023-02-28T04:54:32;17.70;21.70
21085;DHT22;34247;50.064;19.970;2023-02-28T04:55:37;17.70;21.70
21085;DHT22;34247;50.064;19.970;2023-02-28T04:56:43;17.70;21.80
21085;DHT22;34247;50.064;19.970;2023-02-28T04:57:47;17.70;21.70
21085;DHT22;34247;50.064;19.970;2023-02-28T04:58:51;17.70;21.80
21085;DHT22;34247;50.064;19.970;2023-02-28T04:59:56;17.70;21.80
21085;DHT22;34247;50.064;19.970;2023-02-28T05:01:05;17.70;21.80
21085;DHT22;34247;50.064;19.970;2023-02-28T05:02:24;17.70;21.90
21085;DHT22;34247;50.064;19.970;2023-02-28T05:03:28;17.70;21.90
21085;DHT22;34247;50.064;19.970;2023-02-28T05:04:35;17.70;21.90
21085;DHT22;34247;50.064;19.970;2023-02-28T05:05:39;17.70;21.90
21085;DHT22;34247;50.064;19.970;2023-02-28T05:06:43;17.70;22.00
21085;DHT22;34247;50.064;19.970;2023-02-28T05:07:46;17.70;22.00
21085;DHT22;34247;50.064;19.970;2023-02-28T05:08:51;17.70;21.60
21085;DHT22;34247;50.064;19.970;2023-02-28T05:09:55;17.70;22.00
21085;DHT22;34247;50.064;19.970;2023-02-28T05:11:00;17.70;22.00
21085;DHT22;34247;50.064;19.970;2023-02-28T05:12:08;17.70;22.00
21085;DHT22;34247;50.064;19.970;2023-02-28T05:13:12;17.60;22.10
21085;DHT22;34247;50.064;19.970;2023-02-28T05:14:22;17.60;22.00
21085;DHT22;34247;50.064;19.970;2023-02-28T05:15:25;17.70;22.10
21085;DHT22;34247;50.064;19.970;2023-02-28T05:16:29;17.60;22.10
21085;DHT22;34247;50.064;19.970;2023-02-28T05:17:33;17.60;22.10
21085;DHT22;34247;50.064;19.970;2023-02-28T05:18:37;17.60;22.10
21085;DHT22;34247;50.064;19.970;2023-02-28T05:19:42;17.60;22.10
21085;DHT22;34247;50.064;19.970;2023-02-28T05:20:46;17.60;22.20
21085;DHT22;34247;50.064;19.970;2023-02-28T05:21:53;17.60;22.20
21085;DHT22;34247;50.064;19.970;2023-02-28T05:23:02;17.60;22.20
21085;DHT22;34247;50.064;19.970;2023-02-28T05:24:12;17.60;22.20
21085;DHT22;34247;50.064;19.970;2023-02-28T05:25:19;17.60;22.20
21085;DHT22;34247;50.064;19.970;2023-02-28T05:26:25;17.60;22.20
21085;DHT22;34247;50.064;19.970;2023-02-28T05:27:29;17.60;22.10
21085;DHT22;34247;50.064;19.970;2023-02-28T05:28:34;17.60;22.20
21085;DHT22;34247;50.064;19.970;2023-02-28T05:29:38;17.60;22.20
21085;DHT22;34247;50.064;19.970;2023-02-28T05:30:45;17.50;22.20
21085;DHT22;34247;50.064;19.970;2023-02-28T05:31:49;17.60;22.70
21085;DHT22;34247;50.064;19.970;2023-02-28T05:32:53;17.60;22.20
21085;DHT22;34247;50.064;19.970;2023-02-28T05:33:58;17.50;22.20
21085;DHT22;34247;50.064;19.970;2023-02-28T05:35:03;17.60;22.30
21085;DHT22;34247;50.064;19.970;2023-02-28T05:36:14;17.50;22.20
21085;DHT22;34247;50.064;19.970;2023-02-28T05:37:18;17.60;22.30
21085;DHT22;34247;50.064;19.970;2023-02-28T05:38:21;17.60;22.30
21085;DHT22;34247;50.064;19.970;2023-02-28T05:39:25;17.50;22.20
21085;DHT22;34247;50.064;19.970;2023-02-28T05:40:29;17.60;22.30
21085;DHT22;34247;50.064;19.970;2023-02-28T05:41:33;17.50;22.30
21085;DHT22;34247;50.064;19.970;2023-02-28T05:42:37;17.60;22.40
21085;DHT22;34247;50.064;19.970;2023-02-28T05:43:41;17.50;22.40
21085;DHT22;34247;50.064;19.970;2023-02-28T05:44:46;17.50;22.30
21085;DHT22;34247;50.064;19.970;2023-02-28T05:45:51;17.60;22.40
21085;DHT22;34247;50.064;19.970;2023-02-28T05:46:55;17.50;22.30
21085;DHT22;34247;50.064;19.970;2023-02-28T05:47:59;17.60;22.40
21085;DHT22;34247;50.064;19.970;2023-02-28T05:49:03;17.50;22.40
21085;DHT22;34247;50.064;19.970;2023-02-28T05:50:11;17.50;22.30
21085;DHT22;34247;50.064;19.970;2023-02-28T05:51:15;17.50;22.40
21085;DHT22;34247;50.064;19.970;2023-02-28T05:52:20;17.50;22.40
21085;DHT22;34247;50.064;19.970;2023-02-28T05:53:24;17.50;22.40
21085;DHT22;34247;50.064;19.970;2023-02-28T05:54:28;17.50;22.50
21085;DHT22;34247;50.064;19.970;2023-02-28T05:55:32;17.50;22.40
21085;DHT22;34247;50.064;19.970;2023-02-28T05:56:35;17.60;22.50
21085;DHT22;34247;50.064;19.970;2023-02-28T05:57:44;17.50;22.50
21085;DHT22;34247;50.064;19.970;2023-02-28T05:58:47;17.50;22.50
21085;DHT22;34247;50.064;19.970;2023-02-28T05:59:52;17.50;22.50
21085;DHT22;34247;50.064;19.970;2023-02-28T06:00:58;17.50;22.50
21085;DHT22;34247;50.064;19.970;2023-02-28T06:02:02;17.50;22.50
21085;DHT22;34247;50.064;19.970;2023-02-28T06:03:11;17.50;22.50
21085;DHT22;34247;50.064;19.970;2023-02-28T06:04:17;17.50;22.50
21085;DHT22;34247;50.064;19.970;2023-02-28T06:05:34;17.50;22.50
21085;DHT22;34247;50.064;19.970;2023-02-28T06:06:38;17.50;22.50
21085;DHT22;34247;50.064;19.970;2023-02-28T06:07:43;17.50;22.60
21085;DHT22;34247;50.064;19.970;2023-02-28T06:08:47;17.50;22.60
21085;DHT22;34247;50.064;19.970;2023-02-28T06:09:51;17.50;22.60
21085;DHT22;34247;50.064;19.970;2023-02-28T06:10:55;17.50;22.60
21085;DHT22;34247;50.064;19.970;2023-02-28T06:12:00;17.50;22.60
21085;DHT22;34247;50.064;19.970;2023-02-28T06:13:12;17.50;22.60
21085;DHT22;34247;50.064;19.970;2023-02-28T06:14:17;17.50;22.60
21085;DHT22;34247;50.064;19.970;2023-02-28T06:15:23;17.60;22.70
21085;DHT22;34247;50.064;19.970;2023-02-28T06:16:28;17.60;22.70
21085;DHT22;34247;50.064;19.970;2023-02-28T06:17:33;17.60;22.70
21085;DHT22;34247;50.064;19.970;2023-02-28T06:18:37;17.60;22.70
21085;DHT22;34247;50.064;19.970;2023-02-28T06:19:43;17.60;22.80
21085;DHT22;34247;50.064;19.970;2023-02-28T06:20:54;17.60;22.80
21085;DHT22;34247;50.064;19.970;2023-02-28T06:21:58;17.60;22.80
21085;DHT22;34247;50.064;19.970;2023-02-28T06:23:10;17.60;22.80
21085;DHT22;34247;50.064;19.970;2023-02-28T06:24:14;17.60;22.80
21085;DHT22;34247;50.064;19.970;2023-02-28T06:25:18;17.60;22.90
21085;DHT22;34247;50.064;19.970;2023-02-28T06:26:22;17.60;22.80
21085;DHT22;34247;50.064;19.970;2023-02-28T06:27:26;17.60;22.90
21085;DHT22;34247;50.064;19.970;2023-02-28T06:28:30;17.60;23.00
21085;DHT22;34247;50.064;19.970;2023-02-28T06:29:34;17.60;22.90
21085;DHT22;34247;50.064;19.970;2023-02-28T06:30:39;17.60;22.80
21085;DHT22;34247;50.064;19.970;2023-02-28T06:31:44;17.60;22.80
21085;DHT22;34247;50.064;19.970;2023-02-28T06:32:48;17.60;22.90
21085;DHT22;34247;50.064;19.970;2023-02-28T06:33:52;17.60;22.90
21085;DHT22;34247;50.064;19.970;2023-02-28T06:34:59;17.60;22.90
21085;DHT22;34247;50.064;19.970;2023-02-28T06:36:04;17.60;22.90
21085;DHT22;34247;50.064;19.970;2023-02-28T06:37:18;17.60;23.00
21085;DHT22;34247;50.064;19.970;2023-02-28T06:38:26;17.60;22.90
21085;DHT22;34247;50.064;19.970;2023-02-28T06:39:41;17.60;22.90
21085;DHT22;34247;50.064;19.970;2023-02-28T06:40:58;17.60;22.90
21085;DHT22;34247;50.064;19.970;2023-02-28T06:42:11;17.70;23.00
21085;DHT22;34247;50.064;19.970;2023-02-28T06:43:16;17.70;23.00
21085;DHT22;34247;50.064;19.970;2023-02-28T06:44:20;17.70;23.00
21085;DHT22;34247;50.064;19.970;2023-02-28T06:45:25;17.70;23.00
21085;DHT22;34247;50.064;19.970;2023-02-28T06:46:38;17.70;23.00
21085;DHT22;34247;50.064;19.970;2023-02-28T06:47:46;17.70;23.00
21085;DHT22;34247;50.064;19.970;2023-02-28T06:48:55;17.70;23.00
21085;DHT22;34247;50.064;19.970;2023-02-28T06:49:59;17.80;23.00
21085;DHT22;34247;50.064;19.970;2023-02-28T06:51:11;17.80;23.00
21085;DHT22;34247;50.064;19.970;2023-02-28T06:52:17;17.80;23.00
21085;DHT22;34247;50.064;19.970;2023-02-28T06:53:20;17.80;23.00
21085;DHT22;34247;50.064;19.970;2023-02-28T06:54:24;17.90;23.00
21085;DHT22;34247;50.064;19.970;2023-02-28T06:55:28;17.80;22.90
21085;DHT22;34247;50.064;19.970;2023-02-28T06:56:33;17.90;23.00
21085;DHT22;34247;50.064;19.970;2023-02-28T06:57:40;17.90;23.00
21085;DHT22;34247;50.064;19.970;2023-02-28T06:58:47;17.90;23.00
21085;DHT22;34247;50.064;19.970;2023-02-28T06:59:52;17.90;22.90
21085;DHT22;34247;50.064;19.970;2023-02-28T07:00:56;18.00;23.00
21085;DHT22;34247;50.064;19.970;2023-02-28T07:02:01;17.90;22.90
21085;DHT22;34247;50.064;19.970;2023-02-28T07:03:18;17.90;22.90
21085;DHT22;34247;50.064;19.970;2023-02-28T07:04:23;18.00;22.90
21085;DHT22;34247;50.064;19.970;2023-02-28T07:05:27;18.00;22.90
21085;DHT22;34247;50.064;19.970;2023-02-28T07:06:31;18.00;22.90
21085;DHT22;34247;50.064;19.970;2023-02-28T07:07:42;18.10;22.90
21085;DHT22;34247;50.064;19.970;2023-02-28T07:08:53;18.10;22.90
21085;DHT22;34247;50.064;19.970;2023-02-28T07:10:00;18.10;22.80
21085;DHT22;34247;50.064;19.970;2023-02-28T07:11:04;18.10;22.80
21085;DHT22;34247;50.064;19.970;2023-02-28T07:12:11;18.10;22.80
21085;DHT22;34247;50.064;19.970;2023-02-28T07:13:19;18.10;22.90
21085;DHT22;34247;50.064;19.970;2023-02-28T07:14:23;18.20;22.90
21085;DHT22;34247;50.064;19.970;2023-02-28T07:15:26;18.10;22.90
21085;DHT22;34247;50.064;19.970;2023-02-28T07:16:31;18.20;22.90
21085;DHT22;34247;50.064;19.970;2023-02-28T07:17:35;18.20;22.90
21085;DHT22;34247;50.064;19.970;2023-02-28T07:18:39;18.20;22.80
21085;DHT22;34247;50.064;19.970;2023-02-28T07:19:43;18.30;22.80
21085;DHT22;34247;50.064;19.970;2023-02-28T07:20:46;18.30;22.80
21085;DHT22;34247;50.064;19.970;2023-02-28T07:21:50;18.30;22.80
21085;DHT22;34247;50.064;19.970;2023-02-28T07:22:53;18.30;22.80
21085;DHT22;34247;50.064;19.970;2023-02-28T07:24:01;18.30;22.80
21085;DHT22;34247;50.064;19.970;2023-02-28T07:25:10;18.30;22.80
21085;DHT22;34247;50.064;19.970;2023-02-28T07:26:15;18.40;22.80
21085;DHT22;34247;50.064;19.970;2023-02-28T07:27:23;18.40;22.70
21085;DHT22;34247;50.064;19.970;2023-02-28T07:28:28;18.40;22.70
21085;DHT22;34247;50.064;19.970;2023-02-28T07:29:34;18.40;22.70
21085;DHT22;34247;50.064;19.970;2023-02-28T07:30:38;18.40;22.60
21085;DHT22;34247;50.064;19.970;2023-02-28T07:31:42;18.50;22.60
21085;DHT22;34247;50.064;19.970;2023-02-28T07:32:47;18.50;22.30
21085;DHT22;34247;50.064;19.970;2023-02-28T07:33:51;18.50;22.20
21085;DHT22;34247;50.064;19.970;2023-02-28T07:34:55;18.50;22.10
21085;DHT22;34247;50.064;19.970;2023-02-28T07:36:08;18.50;22.20
21085;DHT22;34247;50.064;19.970;2023-02-28T07:37:18;18.50;22.20
21085;DHT22;34247;50.064;19.970;2023-02-28T07:38:24;18.50;22.20
21085;DHT22;34247;50.064;19.970;2023-02-28T07:39:28;18.50;22.20
21085;DHT22;34247;50.064;19.970;2023-02-28T07:40:35;18.60;22.10
21085;DHT22;34247;50.064;19.970;2023-02-28T07:41:39;18.60;22.00
21085;DHT22;34247;50.064;19.970;2023-02-28T07:42:46;18.60;21.80